sensor_id;sensor_type;location;lat;lon;timestamp;P1;durP1;ratioP1;P2;durP2;ratioP2
66585;SDS011;53444;45.822;16.092;2022-09-09T00:01:03;20.33;;;13.57;;
66585;SDS011;53444;45.822;16.092;2022-09-09T00:03:47;17.17;;;12.63;;
66585;SDS011;53444;45.822;16.092;2022-09-09T00:06:42;19.25;;;13.73;;
66585;SDS011;53444;45.822;16.092;2022-09-09T00:09:30;21.45;;;13.98;;
66585;SDS011;53444;45.822;16.092;2022-09-09T00:12:10;22.88;;;14.73;;
66585;SDS011;53444;45.822;16.092;2022-09-09T00:17:42;24.43;;;15.30;;
66585;SDS011;53444;45.822;16.092;2022-09-09T00:20:19;23.92;;;15.02;;
66585;SDS011;53444;45.822;16.092;2022-09-09T00:23:10;25.40;;;17.83;;
66585;SDS011;53444;45.822;16.092;2022-09-09T00:25:54;29.23;;;17.98;;
66585;SDS011;53444;45.822;16.092;2022-09-09T00:28:43;23.35;;;17.52;;
66585;SDS011;53444;45.822;16.092;2022-09-09T00:31:35;25.47;;;17.50;;
66585;SDS011;53444;45.822;16.092;2022-09-09T00:34:09;27.23;;;17.85;;
66585;SDS011;53444;45.822;16.092;2022-09-09T00:36:52;28.95;;;17.33;;
66585;SDS011;53444;45.822;16.092;2022-09-09T00:39:32;31.23;;;18.52;;
66585;SDS011;53444;45.822;16.092;2022-09-09T00:42:14;27.92;;;17.75;;
66585;SDS011;53444;45.822;16.092;2022-09-09T00:44:53;24.73;;;16.73;;
66585;SDS011;53444;45.822;16.092;2022-09-09T00:47:36;24.38;;;16.30;;
66585;SDS011;53444;45.822;16.092;2022-09-09T00:50:30;20.90;;;15.40;;
66585;SDS011;53444;45.822;16.092;2022-09-09T00:53:11;26.05;;;16.05;;
66585;SDS011;53444;45.822;16.092;2022-09-09T00:55:58;25.15;;;15.85;;
66585;SDS011;53444;45.822;16.092;2022-09-09T00:58:43;22.33;;;16.03;;
66585;SDS011;53444;45.822;16.092;2022-09-09T01:01:26;24.95;;;16.15;;
66585;SDS011;53444;45.822;16.092;2022-09-09T01:03:56;26.45;;;16.38;;
66585;SDS011;53444;45.822;16.092;2022-09-09T01:06:42;25.77;;;15.15;;
66585;SDS011;53444;45.822;16.092;2022-09-09T01:09:21;19.65;;;13.55;;
66585;SDS011;53444;45.822;16.092;2022-09-09T01:12:03;16.60;;;11.07;;
66585;SDS011;53444;45.822;16.092;2022-09-09T01:14:45;13.05;;;8.98;;
66585;SDS011;53444;45.822;16.092;2022-09-09T01:17:30;12.30;;;8.38;;
66585;SDS011;53444;45.822;16.092;2022-09-09T01:20:14;11.00;;;7.57;;
66585;SDS011;53444;45.822;16.092;2022-09-09T01:26:11;11.07;;;7.00;;
66585;SDS011;53444;45.822;16.092;2022-09-09T01:28:49;12.05;;;5.90;;
66585;SDS011;53444;45.822;16.092;2022-09-09T01:31:26;8.10;;;5.25;;
66585;SDS011;53444;45.822;16.092;2022-09-09T01:34:08;6.30;;;4.90;;
66585;SDS011;53444;45.822;16.092;2022-09-09T01:36:42;6.78;;;5.00;;
66585;SDS011;53444;45.822;16.092;2022-09-09T01:39:19;7.20;;;4.83;;
66585;SDS011;53444;45.822;16.092;2022-09-09T01:42:00;8.30;;;4.53;;
66585;SDS011;53444;45.822;16.092;2022-09-09T01:44:43;5.30;;;4.00;;
66585;SDS011;53444;45.822;16.092;2022-09-09T01:47:14;6.97;;;3.95;;
66585;SDS011;53444;45.822;16.092;2022-09-09T01:49:48;4.70;;;3.63;;
66585;SDS011;53444;45.822;16.092;2022-09-09T01:52:15;5.97;;;3.70;;
66585;SDS011;53444;45.822;16.092;2022-09-09T01:54:52;6.75;;;3.40;;
66585;SDS011;53444;45.822;16.092;2022-09-09T01:57:36;5.03;;;3.13;;
66585;SDS011;53444;45.822;16.092;2022-09-09T02:00:19;4.32;;;3.03;;
66585;SDS011;53444;45.822;16.092;2022-09-09T02:02:52;3.58;;;3.17;;
66585;SDS011;53444;45.822;16.092;2022-09-09T02:05:30;3.37;;;2.83;;
66585;SDS011;53444;45.822;16.092;2022-09-09T02:08:18;4.85;;;3.00;;
66585;SDS011;53444;45.822;16.092;2022-09-09T02:11:06;3.78;;;3.03;;
66585;SDS011;53444;45.822;16.092;2022-09-09T02:13:45;5.97;;;3.00;;
66585;SDS011;53444;45.822;16.092;2022-09-09T02:16:37;3.72;;;2.60;;
66585;SDS011;53444;45.822;16.092;2022-09-09T02:19:23;4.53;;;2.80;;
66585;SDS011;53444;45.822;16.092;2022-09-09T02:21:56;3.85;;;3.00;;
66585;SDS011;53444;45.822;16.092;2022-09-09T02:24:28;4.18;;;2.75;;
66585;SDS011;53444;45.822;16.092;2022-09-09T02:27:11;4.63;;;2.70;;
66585;SDS011;53444;45.822;16.092;2022-09-09T02:29:55;3.50;;;2.55;;
66585;SDS011;53444;45.822;16.092;2022-09-09T02:32:35;3.00;;;2.00;;
66585;SDS011;53444;45.822;16.092;2022-09-09T02:35:05;2.70;;;1.80;;
66585;SDS011;53444;45.822;16.092;2022-09-09T02:37:42;2.90;;;1.88;;
66585;SDS011;53444;45.822;16.092;2022-09-09T02:40:22;3.97;;;2.05;;
66585;SDS011;53444;45.822;16.092;2022-09-09T02:45:53;4.03;;;1.80;;
66585;SDS011;53444;45.822;16.092;2022-09-09T02:48:40;2.83;;;1.70;;
66585;SDS011;53444;45.822;16.092;2022-09-09T02:51:16;2.47;;;1.70;;
66585;SDS011;53444;45.822;16.092;2022-09-09T02:53:50;4.70;;;1.77;;
66585;SDS011;53444;45.822;16.092;2022-09-09T02:56:34;3.72;;;1.73;;
66585;SDS011;53444;45.822;16.092;2022-09-09T02:59:21;3.03;;;1.67;;
66585;SDS011;53444;45.822;16.092;2022-09-09T03:01:55;4.28;;;2.08;;
66585;SDS011;53444;45.822;16.092;2022-09-09T03:04:44;4.57;;;2.03;;
66585;SDS011;53444;45.822;16.092;2022-09-09T03:07:44;3.33;;;1.60;;
66585;SDS011;53444;45.822;16.092;2022-09-09T03:10:30;2.65;;;1.70;;
66585;SDS011;53444;45.822;16.092;2022-09-09T03:13:08;3.70;;;2.20;;
66585;SDS011;53444;45.822;16.092;2022-09-09T03:15:39;3.67;;;2.10;;
66585;SDS011;53444;45.822;16.092;2022-09-09T03:18:22;2.85;;;1.80;;
66585;SDS011;53444;45.822;16.092;2022-09-09T03:20:54;5.03;;;2.30;;
66585;SDS011;53444;45.822;16.092;2022-09-09T03:23:43;4.43;;;2.22;;
66585;SDS011;53444;45.822;16.092;2022-09-09T03:26:15;3.63;;;2.50;;
66585;SDS011;53444;45.822;16.092;2022-09-09T03:28:58;4.18;;;2.45;;
66585;SDS011;53444;45.822;16.092;2022-09-09T03:31:35;6.00;;;2.60;;
66585;SDS011;53444;45.822;16.092;2022-09-09T03:36:50;5.07;;;2.83;;
66585;SDS011;53444;45.822;16.092;2022-09-09T03:39:30;4.30;;;2.60;;
66585;SDS011;53444;45.822;16.092;2022-09-09T03:42:08;3.78;;;2.60;;
66585;SDS011;53444;45.822;16.092;2022-09-09T03:44:44;6.80;;;2.88;;
66585;SDS011;53444;45.822;16.092;2022-09-09T03:47:32;5.18;;;2.75;;
66585;SDS011;53444;45.822;16.092;2022-09-09T03:53:07;3.53;;;2.67;;
66585;SDS011;53444;45.822;16.092;2022-09-09T03:55:50;6.25;;;2.70;;
66585;SDS011;53444;45.822;16.092;2022-09-09T03:58:23;5.57;;;2.83;;
66585;SDS011;53444;45.822;16.092;2022-09-09T04:01:09;4.40;;;2.67;;
66585;SDS011;53444;45.822;16.092;2022-09-09T04:03:54;3.80;;;2.88;;
66585;SDS011;53444;45.822;16.092;2022-09-09T04:06:34;4.40;;;2.80;;
66585;SDS011;53444;45.822;16.092;2022-09-09T04:09:11;4.07;;;2.65;;
66585;SDS011;53444;45.822;16.092;2022-09-09T04:11:51;5.30;;;2.95;;
66585;SDS011;53444;45.822;16.092;2022-09-09T04:14:22;5.00;;;2.90;;
66585;SDS011;53444;45.822;16.092;2022-09-09T04:16:59;5.60;;;2.45;;
66585;SDS011;53444;45.822;16.092;2022-09-09T04:19:40;4.10;;;2.60;;
66585;SDS011;53444;45.822;16.092;2022-09-09T04:25:08;4.55;;;2.30;;
66585;SDS011;53444;45.822;16.092;2022-09-09T04:27:43;4.03;;;2.50;;
66585;SDS011;53444;45.822;16.092;2022-09-09T04:33:01;4.83;;;2.40;;
66585;SDS011;53444;45.822;16.092;2022-09-09T04:35:30;4.97;;;2.58;;
66585;SDS011;53444;45.822;16.092;2022-09-09T04:38:04;4.10;;;2.42;;
66585;SDS011;53444;45.822;16.092;2022-09-09T04:40:41;3.50;;;2.10;;
66585;SDS011;53444;45.822;16.092;2022-09-09T04:43:10;4.13;;;1.95;;
66585;SDS011;53444;45.822;16.092;2022-09-09T04:45:42;3.23;;;2.10;;
66585;SDS011;53444;45.822;16.092;2022-09-09T04:48:13;3.85;;;2.17;;
66585;SDS011;53444;45.822;16.092;2022-09-09T04:50:42;3.47;;;2.10;;
66585;SDS011;53444;45.822;16.092;2022-09-09T04:53:36;3.10;;;1.90;;
66585;SDS011;53444;45.822;16.092;2022-09-09T04:56:07;3.78;;;2.05;;
66585;SDS011;53444;45.822;16.092;2022-09-09T04:58:44;3.90;;;2.10;;
66585;SDS011;53444;45.822;16.092;2022-09-09T05:01:15;4.28;;;2.22;;
66585;SDS011;53444;45.822;16.092;2022-09-09T05:03:45;2.83;;;2.00;;
66585;SDS011;53444;45.822;16.092;2022-09-09T05:06:23;3.78;;;2.10;;
66585;SDS011;53444;45.822;16.092;2022-09-09T05:08:53;4.03;;;2.47;;
66585;SDS011;53444;45.822;16.092;2022-09-09T05:11:25;4.17;;;2.10;;
66585;SDS011;53444;45.822;16.092;2022-09-09T05:16:44;3.05;;;2.03;;
66585;SDS011;53444;45.822;16.092;2022-09-09T05:19:26;4.53;;;2.20;;
66585;SDS011;53444;45.822;16.092;2022-09-09T05:22:18;5.57;;;2.55;;
66585;SDS011;53444;45.822;16.092;2022-09-09T05:24:53;3.07;;;2.37;;
66585;SDS011;53444;45.822;16.092;2022-09-09T05:27:36;3.33;;;2.33;;
66585;SDS011;53444;45.822;16.092;2022-09-09T05:30:14;4.47;;;2.50;;
66585;SDS011;53444;45.822;16.092;2022-09-09T05:32:55;2.80;;;2.25;;
66585;SDS011;53444;45.822;16.092;2022-09-09T05:35:33;3.60;;;2.38;;
66585;SDS011;53444;45.822;16.092;2022-09-09T05:38:06;4.23;;;2.30;;
66585;SDS011;53444;45.822;16.092;2022-09-09T05:43:21;4.53;;;2.50;;
66585;SDS011;53444;45.822;16.092;2022-09-09T05:45:58;5.30;;;2.50;;
66585;SDS011;53444;45.822;16.092;2022-09-09T05:48:31;5.00;;;2.72;;
66585;SDS011;53444;45.822;16.092;2022-09-09T05:51:03;4.00;;;2.57;;
66585;SDS011;53444;45.822;16.092;2022-09-09T05:53:32;4.97;;;2.60;;
66585;SDS011;53444;45.822;16.092;2022-09-09T05:56:07;3.60;;;2.50;;
66585;SDS011;53444;45.822;16.092;2022-09-09T05:58:47;3.55;;;2.63;;
66585;SDS011;53444;45.822;16.092;2022-09-09T06:01:28;6.60;;;2.60;;
66585;SDS011;53444;45.822;16.092;2022-09-09T06:04:01;5.17;;;2.30;;
66585;SDS011;53444;45.822;16.092;2022-09-09T06:06:37;5.03;;;2.22;;
66585;SDS011;53444;45.822;16.092;2022-09-09T06:09:09;3.65;;;2.30;;
66585;SDS011;53444;45.822;16.092;2022-09-09T06:11:38;3.20;;;2.60;;
66585;SDS011;53444;45.822;16.092;2022-09-09T06:14:08;4.75;;;2.17;;
66585;SDS011;53444;45.822;16.092;2022-09-09T06:16:44;2.73;;;2.03;;
66585;SDS011;53444;45.822;16.092;2022-09-09T06:19:28;2.40;;;1.90;;
66585;SDS011;53444;45.822;16.092;2022-09-09T06:22:10;3.95;;;1.85;;
66585;SDS011;53444;45.822;16.092;2022-09-09T06:24:41;1.70;;;1.60;;
66585;SDS011;53444;45.822;16.092;2022-09-09T06:27:15;2.75;;;1.70;;
66585;SDS011;53444;45.822;16.092;2022-09-09T06:29:48;4.27;;;1.90;;
66585;SDS011;53444;45.822;16.092;2022-09-09T06:32:21;4.45;;;2.05;;
66585;SDS011;53444;45.822;16.092;2022-09-09T06:34:48;3.72;;;2.67;;
66585;SDS011;53444;45.822;16.092;2022-09-09T06:37:24;4.05;;;2.38;;
66585;SDS011;53444;45.822;16.092;2022-09-09T06:40:02;3.10;;;2.30;;
66585;SDS011;53444;45.822;16.092;2022-09-09T06:42:44;4.00;;;2.03;;
66585;SDS011;53444;45.822;16.092;2022-09-09T06:45:11;3.45;;;2.15;;
66585;SDS011;53444;45.822;16.092;2022-09-09T06:48:07;4.30;;;1.90;;
66585;SDS011;53444;45.822;16.092;2022-09-09T06:50:39;3.10;;;1.80;;
66585;SDS011;53444;45.822;16.092;2022-09-09T06:53:06;3.00;;;2.13;;
66585;SDS011;53444;45.822;16.092;2022-09-09T06:55:44;3.33;;;1.90;;
66585;SDS011;53444;45.822;16.092;2022-09-09T06:58:21;2.30;;;2.10;;
66585;SDS011;53444;45.822;16.092;2022-09-09T07:01:01;2.92;;;1.70;;
66585;SDS011;53444;45.822;16.092;2022-09-09T07:03:33;2.67;;;1.48;;
66585;SDS011;53444;45.822;16.092;2022-09-09T07:06:12;2.05;;;1.40;;
66585;SDS011;53444;45.822;16.092;2022-09-09T07:08:47;1.87;;;1.23;;
66585;SDS011;53444;45.822;16.092;2022-09-09T07:11:18;1.65;;;1.10;;
66585;SDS011;53444;45.822;16.092;2022-09-09T07:13:51;2.45;;;1.30;;
66585;SDS011;53444;45.822;16.092;2022-09-09T07:16:26;4.47;;;1.65;;
66585;SDS011;53444;45.822;16.092;2022-09-09T07:18:57;5.38;;;1.50;;
66585;SDS011;53444;45.822;16.092;2022-09-09T07:21:26;2.30;;;1.57;;
66585;SDS011;53444;45.822;16.092;2022-09-09T07:24:13;2.22;;;1.40;;
66585;SDS011;53444;45.822;16.092;2022-09-09T07:26:42;1.98;;;1.42;;
66585;SDS011;53444;45.822;16.092;2022-09-09T07:29:14;2.35;;;1.33;;
66585;SDS011;53444;45.822;16.092;2022-09-09T07:31:44;1.92;;;1.40;;
66585;SDS011;53444;45.822;16.092;2022-09-09T07:34:13;3.30;;;1.30;;
66585;SDS011;53444;45.822;16.092;2022-09-09T07:36:43;2.90;;;1.20;;
66585;SDS011;53444;45.822;16.092;2022-09-09T07:39:12;2.42;;;1.55;;
66585;SDS011;53444;45.822;16.092;2022-09-09T07:41:43;3.15;;;1.40;;
66585;SDS011;53444;45.822;16.092;2022-09-09T07:44:16;2.10;;;1.27;;
66585;SDS011;53444;45.822;16.092;2022-09-09T07:46:46;4.30;;;1.30;;
66585;SDS011;53444;45.822;16.092;2022-09-09T07:49:17;3.65;;;3.13;;
66585;SDS011;53444;45.822;16.092;2022-09-09T07:51:49;6.53;;;2.90;;
66585;SDS011;53444;45.822;16.092;2022-09-09T07:54:20;6.75;;;2.45;;
66585;SDS011;53444;45.822;16.092;2022-09-09T07:56:53;3.05;;;1.70;;
66585;SDS011;53444;45.822;16.092;2022-09-09T08:02:10;2.00;;;1.60;;
66585;SDS011;53444;45.822;16.092;2022-09-09T08:04:44;3.05;;;1.45;;
66585;SDS011;53444;45.822;16.092;2022-09-09T08:07:18;2.30;;;1.17;;
66585;SDS011;53444;45.822;16.092;2022-09-09T08:09:46;2.60;;;1.20;;
66585;SDS011;53444;45.822;16.092;2022-09-09T08:12:16;2.70;;;1.30;;
66585;SDS011;53444;45.822;16.092;2022-09-09T08:14:45;1.60;;;1.05;;
66585;SDS011;53444;45.822;16.092;2022-09-09T08:17:31;4.38;;;1.50;;
66585;SDS011;53444;45.822;16.092;2022-09-09T08:19:58;2.17;;;1.50;;
66585;SDS011;53444;45.822;16.092;2022-09-09T08:25:23;1.53;;;1.27;;
66585;SDS011;53444;45.822;16.092;2022-09-09T08:27:53;1.30;;;1.08;;
66585;SDS011;53444;45.822;16.092;2022-09-09T08:30:24;1.20;;;1.00;;
66585;SDS011;53444;45.822;16.092;2022-09-09T08:33:13;2.78;;;1.00;;
66585;SDS011;53444;45.822;16.092;2022-09-09T08:35:49;1.60;;;1.00;;
66585;SDS011;53444;45.822;16.092;2022-09-09T08:38:20;1.77;;;1.10;;
66585;SDS011;53444;45.822;16.092;2022-09-09T08:43:58;2.15;;;1.02;;
66585;SDS011;53444;45.822;16.092;2022-09-09T08:47:15;1.52;;;1.13;;
66585;SDS011;53444;45.822;16.092;2022-09-09T08:49:59;2.97;;;1.27;;
66585;SDS011;53444;45.822;16.092;2022-09-09T08:52:55;1.50;;;1.20;;
66585;SDS011;53444;45.822;16.092;2022-09-09T08:55:32;4.00;;;1.20;;
66585;SDS011;53444;45.822;16.092;2022-09-09T08:58:11;2.60;;;1.27;;
66585;SDS011;53444;45.822;16.092;2022-09-09T09:03:55;2.13;;;0.90;;
66585;SDS011;53444;45.822;16.092;2022-09-09T09:06:30;3.00;;;1.03;;
66585;SDS011;53444;45.822;16.092;2022-09-09T09:09:10;3.83;;;1.83;;
66585;SDS011;53444;45.822;16.092;2022-09-09T09:11:53;2.40;;;1.27;;
66585;SDS011;53444;45.822;16.092;2022-09-09T09:14:31;1.95;;;1.10;;
66585;SDS011;53444;45.822;16.092;2022-09-09T09:17:05;2.17;;;1.35;;
66585;SDS011;53444;45.822;16.092;2022-09-09T09:19:42;2.00;;;1.10;;
66585;SDS011;53444;45.822;16.092;2022-09-09T09:22:25;2.35;;;1.10;;
66585;SDS011;53444;45.822;16.092;2022-09-09T09:25:02;2.83;;;1.17;;
66585;SDS011;53444;45.822;16.092;2022-09-09T09:30:52;3.78;;;1.40;;
66585;SDS011;53444;45.822;16.092;2022-09-09T09:33:45;1.20;;;1.00;;
66585;SDS011;53444;45.822;16.092;2022-09-09T09:36:23;2.58;;;1.30;;
66585;SDS011;53444;45.822;16.092;2022-09-09T09:39:21;1.63;;;1.27;;
66585;SDS011;53444;45.822;16.092;2022-09-09T09:42:07;1.60;;;1.30;;
66585;SDS011;53444;45.822;16.092;2022-09-09T09:44:42;2.15;;;1.52;;
66585;SDS011;53444;45.822;16.092;2022-09-09T09:47:16;3.43;;;1.20;;
66585;SDS011;53444;45.822;16.092;2022-09-09T09:52:56;1.90;;;1.40;;
66585;SDS011;53444;45.822;16.092;2022-09-09T09:55:33;1.75;;;1.00;;
66585;SDS011;53444;45.822;16.092;2022-09-09T09:58:14;2.08;;;1.30;;
66585;SDS011;53444;45.822;16.092;2022-09-09T10:01:03;2.47;;;1.27;;
66585;SDS011;53444;45.822;16.092;2022-09-09T10:03:52;1.48;;;0.80;;
66585;SDS011;53444;45.822;16.092;2022-09-09T10:06:30;2.30;;;1.48;;
66585;SDS011;53444;45.822;16.092;2022-09-09T10:09:26;2.53;;;1.02;;
66585;SDS011;53444;45.822;16.092;2022-09-09T10:12:00;1.45;;;0.90;;
66585;SDS011;53444;45.822;16.092;2022-09-09T10:14:38;1.00;;;0.70;;
66585;SDS011;53444;45.822;16.092;2022-09-09T10:17:19;1.50;;;1.10;;
66585;SDS011;53444;45.822;16.092;2022-09-09T10:20:22;1.58;;;1.10;;
66585;SDS011;53444;45.822;16.092;2022-09-09T10:23:14;2.00;;;1.00;;
66585;SDS011;53444;45.822;16.092;2022-09-09T10:26:05;1.77;;;1.30;;
66585;SDS011;53444;45.822;16.092;2022-09-09T10:29:05;1.00;;;0.80;;
66585;SDS011;53444;45.822;16.092;2022-09-09T10:32:06;2.35;;;1.08;;
66585;SDS011;53444;45.822;16.092;2022-09-09T10:35:00;3.35;;;1.20;;
66585;SDS011;53444;45.822;16.092;2022-09-09T10:37:50;2.05;;;1.33;;
66585;SDS011;53444;45.822;16.092;2022-09-09T10:40:58;1.95;;;1.42;;
66585;SDS011;53444;45.822;16.092;2022-09-09T10:44:06;2.37;;;1.20;;
66585;SDS011;53444;45.822;16.092;2022-09-09T10:46:52;1.98;;;1.00;;
66585;SDS011;53444;45.822;16.092;2022-09-09T10:49:35;1.75;;;1.02;;
66585;SDS011;53444;45.822;16.092;2022-09-09T10:52:21;1.50;;;1.10;;
66585;SDS011;53444;45.822;16.092;2022-09-09T10:55:23;2.47;;;1.10;;
66585;SDS011;53444;45.822;16.092;2022-09-09T10:58:09;3.80;;;1.30;;
66585;SDS011;53444;45.822;16.092;2022-09-09T11:00:56;2.17;;;1.50;;
66585;SDS011;53444;45.822;16.092;2022-09-09T11:03:32;1.88;;;1.58;;
66585;SDS011;53444;45.822;16.092;2022-09-09T11:06:21;2.03;;;1.33;;
66585;SDS011;53444;45.822;16.092;2022-09-09T11:09:08;1.95;;;1.23;;
66585;SDS011;53444;45.822;16.092;2022-09-09T11:11:56;2.53;;;1.43;;
66585;SDS011;53444;45.822;16.092;2022-09-09T11:14:36;2.97;;;1.33;;
66585;SDS011;53444;45.822;16.092;2022-09-09T11:17:15;2.28;;;1.48;;
66585;SDS011;53444;45.822;16.092;2022-09-09T11:20:11;4.68;;;1.52;;
66585;SDS011;53444;45.822;16.092;2022-09-09T11:22:43;2.63;;;1.45;;
66585;SDS011;53444;45.822;16.092;2022-09-09T11:25:20;1.73;;;1.50;;
66585;SDS011;53444;45.822;16.092;2022-09-09T11:31:16;1.50;;;1.40;;
66585;SDS011;53444;45.822;16.092;2022-09-09T11:34:10;2.33;;;1.65;;
66585;SDS011;53444;45.822;16.092;2022-09-09T11:37:04;2.58;;;1.50;;
66585;SDS011;53444;45.822;16.092;2022-09-09T11:39:57;3.03;;;1.30;;
66585;SDS011;53444;45.822;16.092;2022-09-09T11:42:47;2.42;;;1.10;;
66585;SDS011;53444;45.822;16.092;2022-09-09T11:46:01;4.78;;;1.52;;
66585;SDS011;53444;45.822;16.092;2022-09-09T11:48:25;1.98;;;1.30;;
66585;SDS011;53444;45.822;16.092;2022-09-09T11:51:24;4.53;;;1.60;;
66585;SDS011;53444;45.822;16.092;2022-09-09T11:53:56;2.40;;;1.50;;
66585;SDS011;53444;45.822;16.092;2022-09-09T11:56:30;2.08;;;1.35;;
66585;SDS011;53444;45.822;16.092;2022-09-09T11:59:24;3.65;;;1.52;;
66585;SDS011;53444;45.822;16.092;2022-09-09T12:01:55;3.70;;;2.03;;
66585;SDS011;53444;45.822;16.092;2022-09-09T12:04:58;2.33;;;1.48;;
66585;SDS011;53444;45.822;16.092;2022-09-09T12:07:57;3.03;;;1.30;;
66585;SDS011;53444;45.822;16.092;2022-09-09T12:10:29;3.15;;;1.55;;
66585;SDS011;53444;45.822;16.092;2022-09-09T12:13:07;3.60;;;1.60;;
66585;SDS011;53444;45.822;16.092;2022-09-09T12:15:50;1.73;;;1.50;;
66585;SDS011;53444;45.822;16.092;2022-09-09T12:18:21;2.38;;;1.48;;
66585;SDS011;53444;45.822;16.092;2022-09-09T12:21:10;2.73;;;1.33;;
66585;SDS011;53444;45.822;16.092;2022-09-09T12:23:51;1.90;;;1.58;;
66585;SDS011;53444;45.822;16.092;2022-09-09T12:26:31;1.95;;;1.30;;
66585;SDS011;53444;45.822;16.092;2022-09-09T12:29:16;1.30;;;1.20;;
66585;SDS011;53444;45.822;16.092;2022-09-09T12:32:10;2.15;;;1.60;;
66585;SDS011;53444;45.822;16.092;2022-09-09T12:34:42;3.60;;;1.50;;
66585;SDS011;53444;45.822;16.092;2022-09-09T12:37:25;4.78;;;1.42;;
66585;SDS011;53444;45.822;16.092;2022-09-09T12:40:18;2.13;;;1.50;;
66585;SDS011;53444;45.822;16.092;2022-09-09T12:42:52;9.55;;;2.40;;
66585;SDS011;53444;45.822;16.092;2022-09-09T12:45:24;5.03;;;3.30;;
66585;SDS011;53444;45.822;16.092;2022-09-09T12:48:16;7.37;;;4.67;;
66585;SDS011;53444;45.822;16.092;2022-09-09T12:50:51;7.60;;;3.90;;
66585;SDS011;53444;45.822;16.092;2022-09-09T12:56:25;4.15;;;2.22;;
66585;SDS011;53444;45.822;16.092;2022-09-09T12:59:02;2.83;;;2.10;;
66585;SDS011;53444;45.822;16.092;2022-09-09T13:01:31;2.47;;;1.90;;
66585;SDS011;53444;45.822;16.092;2022-09-09T13:04:18;2.70;;;2.00;;
66585;SDS011;53444;45.822;16.092;2022-09-09T13:07:05;4.38;;;2.83;;
66585;SDS011;53444;45.822;16.092;2022-09-09T13:09:56;3.42;;;2.63;;
66585;SDS011;53444;45.822;16.092;2022-09-09T13:12:32;6.65;;;2.70;;
66585;SDS011;53444;45.822;16.092;2022-09-09T13:15:10;3.97;;;2.30;;
66585;SDS011;53444;45.822;16.092;2022-09-09T13:17:57;5.60;;;2.50;;
66585;SDS011;53444;45.822;16.092;2022-09-09T13:20:39;4.57;;;3.00;;
66585;SDS011;53444;45.822;16.092;2022-09-09T13:23:18;5.25;;;3.33;;
66585;SDS011;53444;45.822;16.092;2022-09-09T13:26:06;5.82;;;3.25;;
66585;SDS011;53444;45.822;16.092;2022-09-09T13:29:15;4.43;;;3.00;;
66585;SDS011;53444;45.822;16.092;2022-09-09T13:31:49;7.82;;;4.80;;
66585;SDS011;53444;45.822;16.092;2022-09-09T13:34:33;8.45;;;4.95;;
66585;SDS011;53444;45.822;16.092;2022-09-09T13:37:16;6.45;;;3.92;;
66585;SDS011;53444;45.822;16.092;2022-09-09T13:42:50;4.03;;;2.30;;
66585;SDS011;53444;45.822;16.092;2022-09-09T13:45:21;4.68;;;2.70;;
66585;SDS011;53444;45.822;16.092;2022-09-09T13:47:52;3.55;;;2.10;;
66585;SDS011;53444;45.822;16.092;2022-09-09T13:50:24;4.78;;;2.00;;
66585;SDS011;53444;45.822;16.092;2022-09-09T13:53:02;4.65;;;2.80;;
66585;SDS011;53444;45.822;16.092;2022-09-09T13:55:29;4.03;;;2.37;;
66585;SDS011;53444;45.822;16.092;2022-09-09T13:57:59;4.22;;;2.20;;
66585;SDS011;53444;45.822;16.092;2022-09-09T14:00:30;4.97;;;2.10;;
66585;SDS011;53444;45.822;16.092;2022-09-09T14:03:03;3.30;;;2.10;;
66585;SDS011;53444;45.822;16.092;2022-09-09T14:05:41;2.75;;;2.00;;
66585;SDS011;53444;45.822;16.092;2022-09-09T14:08:10;4.80;;;2.30;;
66585;SDS011;53444;45.822;16.092;2022-09-09T14:10:50;3.72;;;2.28;;
66585;SDS011;53444;45.822;16.092;2022-09-09T14:13:19;4.80;;;2.28;;
66585;SDS011;53444;45.822;16.092;2022-09-09T14:15:57;3.45;;;2.40;;
66585;SDS011;53444;45.822;16.092;2022-09-09T14:18:30;2.88;;;2.00;;
66585;SDS011;53444;45.822;16.092;2022-09-09T14:21:01;3.73;;;1.93;;
66585;SDS011;53444;45.822;16.092;2022-09-09T14:23:37;2.30;;;1.83;;
66585;SDS011;53444;45.822;16.092;2022-09-09T14:26:11;3.92;;;2.00;;
66585;SDS011;53444;45.822;16.092;2022-09-09T14:28:40;2.47;;;2.10;;
66585;SDS011;53444;45.822;16.092;2022-09-09T14:31:14;3.38;;;1.98;;
66585;SDS011;53444;45.822;16.092;2022-09-09T14:33:47;2.63;;;1.80;;
66585;SDS011;53444;45.822;16.092;2022-09-09T14:36:15;3.60;;;1.90;;
66585;SDS011;53444;45.822;16.092;2022-09-09T14:38:45;2.03;;;1.83;;
66585;SDS011;53444;45.822;16.092;2022-09-09T14:41:17;3.17;;;1.60;;
66585;SDS011;53444;45.822;16.092;2022-09-09T14:43:49;4.35;;;1.90;;
66585;SDS011;53444;45.822;16.092;2022-09-09T14:46:25;4.53;;;1.80;;
66585;SDS011;53444;45.822;16.092;2022-09-09T14:48:58;3.28;;;1.52;;
66585;SDS011;53444;45.822;16.092;2022-09-09T14:51:35;2.25;;;1.80;;
66585;SDS011;53444;45.822;16.092;2022-09-09T14:54:09;2.85;;;1.67;;
66585;SDS011;53444;45.822;16.092;2022-09-09T14:56:36;3.80;;;1.75;;
66585;SDS011;53444;45.822;16.092;2022-09-09T14:59:06;4.07;;;1.50;;
66585;SDS011;53444;45.822;16.092;2022-09-09T15:01:36;3.55;;;1.70;;
66585;SDS011;53444;45.822;16.092;2022-09-09T15:04:04;2.45;;;1.98;;
66585;SDS011;53444;45.822;16.092;2022-09-09T15:06:41;2.22;;;1.50;;
66585;SDS011;53444;45.822;16.092;2022-09-09T15:09:13;2.90;;;1.88;;
66585;SDS011;53444;45.822;16.092;2022-09-09T15:11:43;3.60;;;1.87;;
66585;SDS011;53444;45.822;16.092;2022-09-09T15:14:19;3.83;;;1.77;;
66585;SDS011;53444;45.822;16.092;2022-09-09T15:17:01;3.10;;;2.00;;
66585;SDS011;53444;45.822;16.092;2022-09-09T15:19:31;3.38;;;2.10;;
66585;SDS011;53444;45.822;16.092;2022-09-09T15:22:01;2.67;;;2.00;;
66585;SDS011;53444;45.822;16.092;2022-09-09T15:24:28;3.03;;;2.10;;
66585;SDS011;53444;45.822;16.092;2022-09-09T15:26:55;3.22;;;2.25;;
66585;SDS011;53444;45.822;16.092;2022-09-09T15:29:24;4.93;;;2.20;;
66585;SDS011;53444;45.822;16.092;2022-09-09T15:32:02;6.72;;;1.90;;
66585;SDS011;53444;45.822;16.092;2022-09-09T15:34:44;3.53;;;2.13;;
66585;SDS011;53444;45.822;16.092;2022-09-09T15:37:20;3.10;;;1.90;;
66585;SDS011;53444;45.822;16.092;2022-09-09T15:40:18;4.38;;;2.00;;
66585;SDS011;53444;45.822;16.092;2022-09-09T15:43:01;2.33;;;2.00;;
66585;SDS011;53444;45.822;16.092;2022-09-09T15:45:39;3.30;;;2.10;;
66585;SDS011;53444;45.822;16.092;2022-09-09T15:48:28;3.38;;;2.03;;
66585;SDS011;53444;45.822;16.092;2022-09-09T15:51:01;4.03;;;2.50;;
66585;SDS011;53444;45.822;16.092;2022-09-09T15:53:32;4.35;;;2.30;;
66585;SDS011;53444;45.822;16.092;2022-09-09T15:55:59;3.90;;;2.47;;
66585;SDS011;53444;45.822;16.092;2022-09-09T15:58:29;3.58;;;2.22;;
66585;SDS011;53444;45.822;16.092;2022-09-09T16:01:02;4.13;;;2.25;;
66585;SDS011;53444;45.822;16.092;2022-09-09T16:03:29;2.90;;;1.93;;
66585;SDS011;53444;45.822;16.092;2022-09-09T16:06:04;4.70;;;2.03;;
66585;SDS011;53444;45.822;16.092;2022-09-09T16:08:38;3.03;;;2.00;;
66585;SDS011;53444;45.822;16.092;2022-09-09T16:11:09;4.60;;;2.30;;
66585;SDS011;53444;45.822;16.092;2022-09-09T16:13:45;4.03;;;1.80;;
66585;SDS011;53444;45.822;16.092;2022-09-09T16:16:17;4.10;;;1.70;;
66585;SDS011;53444;45.822;16.092;2022-09-09T16:18:47;2.60;;;1.80;;
66585;SDS011;53444;45.822;16.092;2022-09-09T16:21:28;5.00;;;2.30;;
66585;SDS011;53444;45.822;16.092;2022-09-09T16:24:00;2.10;;;1.75;;
66585;SDS011;53444;45.822;16.092;2022-09-09T16:26:32;4.45;;;2.10;;
66585;SDS011;53444;45.822;16.092;2022-09-09T16:29:03;3.67;;;1.90;;
66585;SDS011;53444;45.822;16.092;2022-09-09T16:31:37;3.15;;;1.90;;
66585;SDS011;53444;45.822;16.092;2022-09-09T16:34:06;2.67;;;1.70;;